EGXT

RAF Wittering Airport

Wittering, United Kingdom
METAR EGXT 201350Z AUTO 19006KT 9999 BKN060/// 27/10 Q1012
Observed Flight Rules
Jul-20 @ 13:50 UTC (52 minutes ago) Visual Flight Rules
Wind Visibility Clouds
190° at 6 knots 10,000+ meters
  • Broken at 6,000' AGL
Temperatures Readings
Current 27°C / 81°F
Dewpoint 10°C / 50°F
Humidity 34%
Altimeter 29.88" Hg
Pressure 1012 hPa
Elevation 84
METAR EGXT 201350Z AUTO 19006KT 9999 BKN060/// 27/10 Q1012
Observed Flight Rules
Jul-20 @ 13:50 UTC
(52 minutes ago)
VFR
Wind Visibility
190° at 6 knots 10,000+ meters
Clouds
  • Broken at 6,000' AGL
Temperature Dewpoint
27°C / 81°F 10°C / 50°F
Humidity Altimeter Pressure
34% 29.88" Hg 1012 hPa